Welcome to Northern Hawkes Bay. New Zealand.
PWS Header
      nz Flag



Hit Counter


W3C Valid W3C Valid logo


    Wairoa

Select any of the Stations below to visit their websites.










Historic Data from Weather Underground
Select the location of interest below. Wairoa is the default. Please have patience, this Data is slow to load in.
Northern Hawkes Bay Historical Data
Daily Summary for December 08, 2018 Units:  English    Metric   Both
« Previous Day
Next Day »
Daily Weekly Monthly Yearly Custom
  High: Low: Average:
Temperature: 71.4 °F 47.7 °F 59.9 °F
Dew Point: 58.5 °F 38.8 °F 51.4 °F
Humidity: 99% 31% 77%
Wind Speed: 9.2mph 0mph 3.5mph
Wind Gust: 15.2mph - -
Wind- - West
Pressure: 30.2 in 30.1 in -
Precipitation: 0 in    
Historical Graphs
 
 
Tabular Data for December 08, 2018
Time Temperature Dew Point Pressure Wind Wind Speed Wind Gust Humidity Rainfall Rate (Hourly) solar
00:04 52 °F 50.9 °F 30.2 in Calm   1.6 mph 96% 0 in 0.00 W/m2
00:09 51.8 °F 50.7 °F 30.2 in Calm   2.2 mph 96% 0 in 0.00 W/m2
00:14 51.6 °F 51.1 °F 30.2 in Calm   2.2 mph 98% 0 in 0.00 W/m2
00:19 51.4 °F 50.9 °F 30.2 in Calm   2.2 mph 98% 0 in 0.00 W/m2
00:24 51.3 °F 50.7 °F 30.2 in Calm     98% 0 in 0.00 W/m2
00:29 51.1 °F 50.5 °F 30.2 in Calm   2.2 mph 98% 0 in 0.00 W/m2
00:34 51.1 °F 50.7 °F 30.2 in NNW 1.6 mph 3.8 mph 99% 0 in 0.00 W/m2
00:39 50.9 °F 50.5 °F 30.2 in NW 2.2 mph 3.8 mph 99% 0 in 0.00 W/m2
00:44 50.9 °F 50.5 °F 30.2 in NW 1.6 mph 3.8 mph 99% 0 in 0.00 W/m2
00:49 50.7 °F 50.5 °F 30.2 in NW 2.2 mph 3.8 mph 99% 0 in 0.00 W/m2
00:54 50.7 °F 50.5 °F 30.2 in NW 3.1 mph 4.5 mph 99% 0 in 0.00 W/m2
00:59 50.7 °F 50.5 °F 30.2 in NNW 0.7 mph 4.5 mph 99% 0 in 0.00 W/m2
01:04 50.5 °F 50.4 °F 30.2 in NW 1.6 mph 3.8 mph 99% 0 in 0.00 W/m2
01:09 50.5 °F 50.4 °F 30.2 in NNW 1.6 mph 3.8 mph 99% 0 in 0.00 W/m2
01:14 50.4 °F 50.2 °F 30.2 in NNW 1.6 mph 3.1 mph 99% 0 in 0.00 W/m2
01:19 50.4 °F 50.2 °F 30.2 in NNW 0.7 mph 3.8 mph 99% 0 in 0.00 W/m2
01:24 50.2 °F 49.8 °F 30.2 in NNW 2.2 mph 3.8 mph 99% 0 in 0.00 W/m2
01:29 50.2 °F 49.8 °F 30.2 in NNW 1.6 mph 3.8 mph 99% 0 in 0.00 W/m2
01:34 50 °F 49.6 °F 30.2 in NNW 2.2 mph 3.8 mph 99% 0 in 0.00 W/m2
01:39 50 °F 49.6 °F 30.2 in NNW 2.2 mph 3.8 mph 99% 0 in 0.00 W/m2
01:44 49.8 °F 49.6 °F 30.2 in NNW 3.1 mph 4.5 mph 99% 0 in 0.00 W/m2
01:49 49.8 °F 49.6 °F 30.2 in NNW 2.2 mph 4.5 mph 99% 0 in 0.00 W/m2
01:54 50 °F 49.6 °F 30.2 in NNW 3.1 mph 5.4 mph 99% 0 in 0.00 W/m2
01:59 50 °F 49.6 °F 30.2 in NNW 3.8 mph 5.4 mph 99% 0 in 0.00 W/m2
02:04 50 °F 49.6 °F 30.1 in NNW 2.2 mph 5.4 mph 99% 0 in 0.00 W/m2
02:09 49.8 °F 49.6 °F 30.2 in NNW 2.2 mph 6 mph 99% 0 in 0.00 W/m2
02:14 49.8 °F 49.6 °F 30.1 in North 2.2 mph 6 mph 99% 0 in 0.00 W/m2
02:19 49.6 °F 49.5 °F 30.1 in North 2.2 mph 5.4 mph 99% 0 in 0.00 W/m2
02:24 49.6 °F 49.5 °F 30.2 in NNW 3.1 mph 6 mph 99% 0 in 0.00 W/m2
02:29 49.6 °F 49.5 °F 30.2 in NNW 3.1 mph 6 mph 99% 0 in 0.00 W/m2
02:34 49.6 °F 49.5 °F 30.2 in NNW 3.1 mph 5.4 mph 99% 0 in 0.00 W/m2
02:39 49.6 °F 49.5 °F 30.2 in NNW 3.8 mph 5.4 mph 99% 0 in 0.00 W/m2
02:44 49.6 °F 49.5 °F 30.2 in NNW 3.8 mph 5.4 mph 99% 0 in 0.00 W/m2
02:49 49.5 °F 49.3 °F 30.2 in NNW 2.2 mph 5.4 mph 99% 0 in 0.00 W/m2
02:54 49.5 °F 49.3 °F 30.1 in NNW 3.1 mph 6 mph 99% 0 in 0.00 W/m2
02:59 49.3 °F 48.9 °F 30.1 in NNW 3.1 mph 6.9 mph 99% 0 in 0.00 W/m2
03:04 49.1 °F 48.7 °F 30.1 in NNW 4.5 mph 6.9 mph 99% 0 in 0.00 W/m2
03:09 49.1 °F 48.7 °F 30.1 in NNW 3.1 mph 6.9 mph 99% 0 in 0.00 W/m2
03:14 48.9 °F 48.7 °F 30.1 in North 2.2 mph 6.9 mph 99% 0 in 0.00 W/m2
03:19 48.7 °F 48.6 °F 30.1 in NNW 3.1 mph 6.9 mph 99% 0 in 0.00 W/m2
03:24 48.7 °F 48.6 °F 30.1 in NNW 4.5 mph 6.9 mph 99% 0 in 0.00 W/m2
03:29 48.7 °F 48.6 °F 30.1 in North 3.8 mph 6.9 mph 99% 0 in 0.00 W/m2
03:34 48.7 °F 48.6 °F 30.1 in NNW 6 mph 6.9 mph 99% 0 in 0.00 W/m2
03:39 48.7 °F 48.6 °F 30.1 in NNW 3.1 mph 6.9 mph 99% 0 in 0.00 W/m2
03:44 48.7 °F 48.6 °F 30.1 in NNW 4.5 mph 6.9 mph 99% 0 in 0.00 W/m2
03:49 48.7 °F 48.6 °F 30.1 in NNW 3.8 mph 6.9 mph 99% 0 in 0.00 W/m2
03:54 48.7 °F 48.6 °F 30.1 in NNW 4.5 mph 8.3 mph 99% 0 in 0.00 W/m2
03:59 48.7 °F 48.6 °F 30.1 in North 4.5 mph 8.3 mph 99% 0 in 0.00 W/m2
04:04 48.9 °F 48.7 °F 30.1 in NNW 4.5 mph 9.2 mph 99% 0 in 0.00 W/m2
04:09 48.7 °F 48.6 °F 30.1 in NNW 3.8 mph 9.2 mph 99% 0 in 0.00 W/m2
04:14 48.7 °F 48.6 °F 30.1 in NNW 3.8 mph 7.6 mph 99% 0 in 0.00 W/m2
04:19 48.6 °F 48.4 °F 30.1 in NNW 3.8 mph 7.6 mph 99% 0 in 0.00 W/m2
04:24 48.4 °F 48 °F 30.1 in NNW 3.8 mph 6.9 mph 99% 0 in 0.00 W/m2
04:29 48.2 °F 47.8 °F 30.1 in NNW 3.1 mph 6 mph 99% 0 in 0.00 W/m2
04:34 48.2 °F 47.8 °F 30.1 in NNW 4.5 mph 6.9 mph 99% 0 in 0.00 W/m2
04:39 48.2 °F 47.8 °F 30.1 in NNW 3.8 mph 6.9 mph 99% 0 in 0.00 W/m2
04:44 48.2 °F 47.8 °F 30.1 in NNW 3.8 mph 6.9 mph 99% 0 in 0.00 W/m2
04:49 48 °F 47.8 °F 30.1 in NNW 3.8 mph 7.6 mph 99% 0 in 0.00 W/m2
04:54 48 °F 47.8 °F 30.1 in NNW 3.8 mph 7.6 mph 99% 0 in 0.00 W/m2
04:59 48.2 °F 47.8 °F 30.1 in NW 4.5 mph 8.3 mph 99% 0 in 0.00 W/m2
05:04 48.2 °F 47.8 °F 30.1 in NNW 4.5 mph 8.3 mph 99% 0 in 0.00 W/m2
05:09 48.2 °F 47.8 °F 30.1 in NNW 7.6 mph 9.2 mph 99% 0 in 0.00 W/m2
05:14 48.2 °F 47.8 °F 30.1 in NNW 5.4 mph 9.2 mph 99% 0 in 0.00 W/m2
05:19 48 °F 47.8 °F 30.1 in NNW 4.5 mph 9.2 mph 99% 0 in 0.00 W/m2
05:24 48 °F 47.8 °F 30.1 in NNW 4.5 mph 7.6 mph 99% 0 in 0.00 W/m2
05:29 48 °F 47.8 °F 30.1 in NW 3.8 mph 7.6 mph 99% 0 in 0.00 W/m2
05:34 47.7 °F 47.5 °F 30.1 in NW 3.1 mph 7.6 mph 99% 0 in 0.00 W/m2
05:39 47.7 °F 47.5 °F 30.1 in NNW 3.8 mph 7.6 mph 99% 0 in 0.00 W/m2
05:44 47.7 °F 47.5 °F 30.1 in NNW 3.8 mph 6.9 mph 99% 0 in 2.00 W/m2
05:49 47.7 °F 47.5 °F 30.1 in NW 4.5 mph 6.9 mph 99% 0 in 4.00 W/m2
05:54 47.7 °F 47.5 °F 30.1 in NW 3.1 mph 6.9 mph 99% 0 in 6.00 W/m2
05:59 47.7 °F 47.5 °F 30.1 in NNW 3.1 mph 6.9 mph 99% 0 in 9.00 W/m2
06:04 47.7 °F 47.5 °F 30.1 in NNW 3.1 mph 6.9 mph 99% 0 in 11.00 W/m2
06:09 47.7 °F 47.5 °F 30.1 in NNW 5.4 mph 6.9 mph 99% 0 in 19.00 W/m2
06:14 47.7 °F 47.5 °F 30.1 in NNW 3.8 mph 6.9 mph 99% 0 in 22.00 W/m2
06:19 47.7 °F 47.5 °F 30.1 in NNW 5.4 mph 8.3 mph 99% 0 in 22.00 W/m2
06:24 47.7 °F 47.5 °F 30.1 in NNW 4.5 mph 8.3 mph 99% 0 in 22.00 W/m2
06:29 48 °F 47.8 °F 30.1 in NW 6 mph 9.2 mph 99% 0 in 24.00 W/m2
06:34 48 °F 47.8 °F 30.1 in NNW 6.9 mph 9.2 mph 99% 0 in 29.00 W/m2
06:39 48 °F 47.8 °F 30.1 in NNW 5.4 mph 10.7 mph 99% 0 in 33.00 W/m2
06:44 48 °F 47.8 °F 30.1 in NW 5.4 mph 10.7 mph 99% 0 in 48.00 W/m2
06:49 48.2 °F 47.8 °F 30.1 in NW 4.5 mph 9.8 mph 99% 0 in 90.00 W/m2
06:54 48.9 °F 48.7 °F 30.1 in NW 4.5 mph 8.3 mph 99% 0 in 94.00 W/m2
06:59 49.5 °F 49.3 °F 30.1 in NW 4.5 mph 8.3 mph 99% 0 in 106.00 W/m2
07:04 50 °F 49.6 °F 30.2 in NNW 5.4 mph 8.3 mph 99% 0 in 112.00 W/m2
07:09 50.4 °F 50.2 °F 30.2 in NNW 4.5 mph 8.3 mph 99% 0 in 130.00 W/m2
07:14 51.1 °F 50.5 °F 30.2 in NNW 4.5 mph 7.6 mph 98% 0 in 150.00 W/m2
07:19 51.6 °F 50.5 °F 30.2 in NNW 5.4 mph 9.2 mph 96% 0 in 159.00 W/m2
07:39 52.9 °F 50.4 °F 30.2 in NNW 5.4 mph 7.6 mph 91% 0 in 192.00 W/m2
07:44 53.8 °F 50.5 °F 30.2 in North 4.5 mph 7.6 mph 89% 0 in 211.00 W/m2
07:49 54.3 °F 50.7 °F 30.2 in North 4.5 mph 9.2 mph 88% 0 in 219.00 W/m2
07:54 54.7 °F 50.5 °F 30.2 in North 6 mph 9.2 mph 86% 0 in 237.00 W/m2
07:59 55 °F 50.5 °F 30.2 in North 4.5 mph 9.2 mph 85% 0 in 251.00 W/m2
08:04 55.8 °F 51.3 °F 30.2 in NNW 3.8 mph 9.2 mph 85% 0 in 261.00 W/m2
08:09 56.1 °F 51.6 °F 30.2 in NNW 3.1 mph 6.9 mph 85% 0 in 274.00 W/m2
08:14 57.2 °F 51.8 °F 30.2 in North 3.8 mph 6.9 mph 82% 0 in 278.00 W/m2
08:19 57.7 °F 52 °F 30.2 in North 3.8 mph 6 mph 81% 0 in 281.00 W/m2
08:24 57.9 °F 51.4 °F 30.2 in North 2.2 mph 6.9 mph 79% 0 in 310.00 W/m2
08:29 58.3 °F 51.8 °F 30.2 in North 3.8 mph 6.9 mph 79% 0 in 326.00 W/m2
08:34 59 °F 51.8 °F 30.2 in North 3.1 mph 6.9 mph 77% 0 in 337.00 W/m2
08:39 59.9 °F 52.3 °F 30.2 in NNW 3.1 mph 6.9 mph 76% 0 in 339.00 W/m2
08:44 60.1 °F 51.8 °F 30.2 in NNW 2.2 mph 5.4 mph 74% 0 in 364.00 W/m2
08:49 60.4 °F 52.5 °F 30.2 in NNW 2.2 mph 6 mph 75% 0 in 383.00 W/m2
08:54 61.5 °F 53.2 °F 30.2 in North 4.5 mph 6 mph 74% 0 in 402.00 W/m2
08:59 62.1 °F 52.9 °F 30.2 in North 3.1 mph 6 mph 72% 0 in 418.00 W/m2
09:04 62.6 °F 52.7 °F 30.2 in North 1.6 mph 6 mph 70% 0 in 433.00 W/m2
09:09 63.7 °F 53.8 °F 30.2 in NNW 1.6 mph 4.5 mph 70% 0 in 453.00 W/m2
09:14 63.9 °F 52.3 °F 30.2 in NW 3.1 mph 5.4 mph 66% 0 in 470.00 W/m2
09:19 63.5 °F 52.3 °F 30.2 in NNW 3.1 mph 5.4 mph 67% 0 in 485.00 W/m2
09:24 64.2 °F 53.1 °F 30.2 in NNW 1.6 mph 5.4 mph 67% 0 in 467.00 W/m2
09:29 65.3 °F 53.2 °F 30.2 in NW 3.1 mph 4.5 mph 65% 0 in 531.00 W/m2
09:34 65.7 °F 53.6 °F 30.2 in West 3.8 mph 5.4 mph 65% 0 in 508.00 W/m2
09:39 66 °F 54.3 °F 30.2 in WNW 3.1 mph 5.4 mph 66% 0 in 553.00 W/m2
09:44 67.6 °F 55 °F 30.2 in NNW 1.6 mph 5.4 mph 64% 0 in 584.00 W/m2
09:49 68 °F 53.2 °F 30.2 in NNE 3.8 mph 6 mph 59% 0 in 600.00 W/m2
09:54 66 °F 49.8 °F 30.2 in NW 6 mph 9.2 mph 56% 0 in 613.00 W/m2
09:59 65.3 °F 50.5 °F 30.2 in NW 3.8 mph 9.2 mph 59% 0 in 626.00 W/m2
10:04 65.3 °F 52 °F 30.2 in NW 6.9 mph 9.2 mph 62% 0 in 645.00 W/m2
10:09 64.8 °F 51.4 °F 30.2 in WSW 5.4 mph 9.8 mph 62% 0 in 667.00 W/m2
10:14 64.2 °F 51.4 °F 30.2 in West 6 mph 9.8 mph 63% 0 in 674.00 W/m2
10:19 63.9 °F 51.4 °F 30.2 in WSW 3.8 mph 8.3 mph 64% 0 in 678.00 W/m2
10:24 64.4 °F 52.3 °F 30.2 in WSW 2.2 mph 8.3 mph 65% 0 in 690.00 W/m2
10:29 65.5 °F 52.5 °F 30.2 in SW 3.1 mph 7.6 mph 63% 0 in 703.00 W/m2
10:34 66 °F 53.4 °F 30.2 in WSW 5.4 mph 7.6 mph 64% 0 in 711.00 W/m2
10:39 66 °F 51.8 °F 30.2 in West 3.1 mph 7.6 mph 60% 0 in 722.00 W/m2
10:44 66.6 °F 51.8 °F 30.2 in SSW 3.8 mph 7.6 mph 59% 0 in 729.00 W/m2
10:49 66.4 °F 53.4 °F 30.2 in SSW 3.1 mph 6.9 mph 63% 0 in 733.00 W/m2
10:54 66.9 °F 51.3 °F 30.2 in WSW 4.5 mph 6.9 mph 57% 0 in 749.00 W/m2
10:59 66.7 °F 52.9 °F 30.2 in South 3.8 mph 6.9 mph 61% 0 in 753.00 W/m2
11:04 66.2 °F 49.6 °F 30.2 in NE 4.5 mph 7.6 mph 55% 0 in 759.00 W/m2
11:09 66 °F 51.3 °F 30.2 in NW 3.8 mph 7.6 mph 59% 0 in 715.00 W/m2
11:14 65.8 °F 52 °F 30.2 in NW 3.8 mph 7.6 mph 61% 0 in 771.00 W/m2
11:19 66.4 °F 50.7 °F 30.2 in East 3.1 mph 6.9 mph 57% 0 in 780.00 W/m2
11:24 66.7 °F 48.6 °F 30.2 in East 3.1 mph 6.9 mph 52% 0 in 788.00 W/m2
11:29 67.1 °F 50.4 °F 30.2 in ENE 4.5 mph 6.9 mph 55% 0 in 798.00 W/m2
11:34 66.6 °F 51.8 °F 30.2 in NNE 6.9 mph 8.3 mph 59% 0 in 750.00 W/m2
11:39 65.8 °F 52.9 °F 30.2 in NW 5.4 mph 9.2 mph 63% 0 in 796.00 W/m2
11:44 65.7 °F 51.1 °F 30.2 in SW 4.5 mph 9.2 mph 59% 0 in 798.00 W/m2
11:49 65.7 °F 51.1 °F 30.2 in ESE 5.4 mph 8.3 mph 59% 0 in 804.00 W/m2
11:54 65.7 °F 51.4 °F 30.2 in NNE 6.9 mph 9.2 mph 60% 0 in 809.00 W/m2
11:59 65.7 °F 53.6 °F 30.2 in NNW 6 mph 9.2 mph 65% 0 in 808.00 W/m2
12:04 65.8 °F 53.2 °F 30.2 in NNW 6 mph 9.8 mph 64% 0 in 810.00 W/m2
12:09 66.2 °F 49.6 °F 30.2 in NW 3.8 mph 9.8 mph 55% 0 in 809.00 W/m2
12:14 66.6 °F 48.9 °F 30.2 in WNW 5.4 mph 9.2 mph 53% 0 in 812.00 W/m2
12:19 66.2 °F 47.7 °F 30.2 in WNW 5.4 mph 8.3 mph 51% 0 in 809.00 W/m2
12:24 66.4 °F 50.2 °F 30.2 in WNW 5.4 mph 8.3 mph 56% 0 in 810.00 W/m2
12:29 66.7 °F 50.5 °F 30.2 in West 6.9 mph 9.8 mph 56% 0 in 810.00 W/m2
12:34 66.4 °F 51.3 °F 30.2 in WNW 3.8 mph 9.8 mph 58% 0 in 806.00 W/m2
12:39 66.2 °F 51.4 °F 30.2 in NW 6.9 mph 9.8 mph 59% 0 in 804.00 W/m2
12:44 66.2 °F 51.4 °F 30.2 in SW 6 mph 9.2 mph 59% 0 in 803.00 W/m2
12:49 66.4 °F 51.6 °F 30.2 in West 6.9 mph 9.2 mph 59% 0 in 784.00 W/m2
12:54 66.6 °F 49.8 °F 30.2 in NNW 3.8 mph 9.2 mph 55% 0 in 791.00 W/m2
12:59 67.1 °F 50.4 °F 30.2 in North 5.4 mph 8.3 mph 55% 0 in 682.00 W/m2
13:04 67.3 °F 51.1 °F 30.2 in NNW 6.9 mph 8.3 mph 56% 0 in 801.00 W/m2
13:09 66.7 °F 51.1 °F 30.2 in WNW 6.9 mph 9.2 mph 57% 0 in 793.00 W/m2
13:14 66.7 °F 51.1 °F 30.2 in NW 5.4 mph 9.2 mph 57% 0 in 793.00 W/m2
13:19 67.3 °F 51.1 °F 30.2 in WSW 5.4 mph 8.3 mph 56% 0 in 792.00 W/m2
13:24 67.8 °F 51.6 °F 30.2 in SW 3.8 mph 8.3 mph 56% 0 in 778.00 W/m2
13:29 68.5 °F 52.2 °F 30.2 in WSW 4.5 mph 9.2 mph 56% 0 in 788.00 W/m2
13:34 68.4 °F 52.5 °F 30.2 in SW 5.4 mph 9.2 mph 57% 0 in 780.00 W/m2
13:39 68 °F 51.3 °F 30.1 in SSW 6 mph 8.3 mph 55% 0 in 775.00 W/m2
13:44 67.6 °F 50.4 °F 30.1 in WSW 3.8 mph 8.3 mph 54% 0 in 773.00 W/m2
13:49 68.4 °F 50.5 °F 30.1 in SW 4.5 mph 8.3 mph 53% 0 in 775.00 W/m2
13:54 69.1 °F 50.7 °F 30.1 in South 3.8 mph 8.3 mph 52% 0 in 738.00 W/m2
13:59 70 °F 49.5 °F 30.1 in SE 3.8 mph 7.6 mph 48% 0 in 746.00 W/m2
14:04 70.5 °F 48.2 °F 30.1 in SE 2.2 mph 6.9 mph 45% 0 in 660.00 W/m2
14:09 70 °F 48.4 °F 30.1 in ESE 6 mph 8.3 mph 46% 0 in 726.00 W/m2
14:14 69.4 °F 44.1 °F 30.1 in ENE 5.4 mph 8.3 mph 40% 0 in 742.00 W/m2
14:19 70 °F 46.6 °F 30.1 in North 2.2 mph 8.3 mph 43% 0 in 735.00 W/m2
14:24 70 °F 45.1 °F 30.1 in SE 5.4 mph 8.3 mph 41% 0 in 727.00 W/m2
14:29 70.2 °F 46 °F 30.1 in ESE 5.4 mph 9.2 mph 42% 0 in 725.00 W/m2
14:34 70.2 °F 47.3 °F 30.1 in Calm   9.2 mph 44% 0 in 713.00 W/m2
14:39 70.9 °F 47.3 °F 30.1 in SE 4.5 mph 8.3 mph 43% 0 in 696.00 W/m2
14:44 70.3 °F 46.8 °F 30.1 in SE 3.8 mph 8.3 mph 43% 0 in 697.00 W/m2
14:49 70.5 °F 46.9 °F 30.1 in SE 3.8 mph 8.3 mph 43% 0 in 681.00 W/m2
14:54 70.5 °F 47.7 °F 30.1 in SE 5.4 mph 8.3 mph 44% 0 in 674.00 W/m2
14:59 70.2 °F 47.8 °F 30.1 in SE 3.8 mph 9.8 mph 45% 0 in 672.00 W/m2
15:04 70.7 °F 47.7 °F 30.1 in SE 4.5 mph 9.8 mph 44% 0 in 666.00 W/m2
15:09 70.7 °F 47.1 °F 30.1 in ESE 4.5 mph 9.8 mph 43% 0 in 658.00 W/m2
15:14 70.9 °F 46.8 °F 30.1 in SSE 5.4 mph 9.8 mph 42% 0 in 648.00 W/m2
15:19 71.1 °F 43.5 °F 30.1 in NNW 5.4 mph 9.8 mph 37% 0 in 641.00 W/m2
15:24 70.9 °F 41.2 °F 30.1 in ESE 6 mph 9.8 mph 34% 0 in 625.00 W/m2
15:29 70.9 °F 41.2 °F 30.1 in SE 5.4 mph 9.8 mph 34% 0 in 618.00 W/m2
15:34 71.1 °F 38.8 °F 30.1 in SSE 6.9 mph 11.4 mph 31% 0 in 611.00 W/m2
15:39 70.7 °F 40.3 °F 30.1 in SE 6.9 mph 11.4 mph 33% 0 in 600.00 W/m2
15:44 71.1 °F 40.5 °F 30.1 in SE 3.8 mph 11.4 mph 33% 0 in 590.00 W/m2
15:49 71.1 °F 39.7 °F 30.1 in SE 6.9 mph 9.8 mph 32% 0 in 579.00 W/m2
15:54 71.1 °F 42.1 °F 30.1 in SE 5.4 mph 9.2 mph 35% 0 in 570.00 W/m2
15:59 71.4 °F 43.2 °F 30.1 in South 6.9 mph 9.2 mph 36% 0 in 560.00 W/m2
16:04 70.7 °F 43.9 °F 30.1 in SSW 9.2 mph 13 mph 38% 0 in 547.00 W/m2
16:09 69.8 °F 45.7 °F 30.1 in SE 6.9 mph 13 mph 42% 0 in 538.00 W/m2
16:14 69.4 °F 47.8 °F 30.1 in SE 8.3 mph 15.2 mph 46% 0 in 523.00 W/m2
16:19 69.3 °F 48.7 °F 30.1 in SE 6 mph 15.2 mph 48% 0 in 514.00 W/m2
16:24 69.3 °F 49.3 °F 30.1 in SE 8.3 mph 13.6 mph 49% 0 in 499.00 W/m2
16:29 69.3 °F 48.2 °F 30.1 in SE 6 mph 13 mph 47% 0 in 487.00 W/m2
16:34 69.8 °F 49.8 °F 30.1 in SE 6 mph 13 mph 49% 0 in 479.00 W/m2
16:39 70 °F 48.4 °F 30.1 in SE 6.9 mph 12.1 mph 46% 0 in 466.00 W/m2
16:44 69.6 °F 48.6 °F 30.1 in ESE 5.4 mph 13.6 mph 47% 0 in 455.00 W/m2
16:49 70.3 °F 49.6 °F 30.1 in SE 6.9 mph 13.6 mph 48% 0 in 444.00 W/m2
16:54 70.3 °F 49.6 °F 30.1 in SE 5.4 mph 10.7 mph 48% 0 in 433.00 W/m2
16:59 70.2 °F 51.6 °F 30.1 in SE 7.6 mph 12.1 mph 52% 0 in 420.00 W/m2
17:04 69.3 °F 53.4 °F 30.1 in ESE 6.9 mph 12.1 mph 57% 0 in 406.00 W/m2
17:09 68.9 °F 54.5 °F 30.1 in ESE 6 mph 12.1 mph 60% 0 in 393.00 W/m2
17:14 69.3 °F 56.1 °F 30.1 in ESE 5.4 mph 12.1 mph 63% 0 in 381.00 W/m2
17:19 69.3 °F 56.1 °F 30.1 in ESE 8.3 mph 10.7 mph 63% 0 in 368.00 W/m2
17:24 68.5 °F 55.9 °F 30.1 in WSW 6.9 mph 11.4 mph 64% 0 in 352.00 W/m2
17:29 68.9 °F 56.1 °F 30.1 in SE 3.8 mph 11.4 mph 64% 0 in 344.00 W/m2
17:34 68.9 °F 56.1 °F 30.1 in SSE 5.4 mph 9.8 mph 64% 0 in 329.00 W/m2
17:39 68.5 °F 55.9 °F 30.1 in SSE 6.9 mph 9.8 mph 64% 0 in 319.00 W/m2
17:44 68.4 °F 56.1 °F 30.1 in SE 6 mph 9.8 mph 65% 0 in 306.00 W/m2
17:49 68.5 °F 56.3 °F 30.1 in SE 5.4 mph 9.8 mph 65% 0 in 300.00 W/m2
17:54 68.2 °F 55.9 °F 30.1 in SE 6 mph 10.7 mph 65% 0 in 285.00 W/m2
17:59 68.4 °F 57 °F 30.1 in SE 3.8 mph 10.7 mph 67% 0 in 275.00 W/m2
18:04 68.9 °F 56.7 °F 30.1 in SE 4.5 mph 9.2 mph 65% 0 in 265.00 W/m2
18:09 69.1 °F 56.8 °F 30.1 in SE 4.5 mph 8.3 mph 65% 0 in 255.00 W/m2
18:14 69.3 °F 57 °F 30.1 in ESE 3.1 mph 8.3 mph 65% 0 in 244.00 W/m2
18:19 69.3 °F 57 °F 30.1 in ESE 3.1 mph 8.3 mph 65% 0 in 236.00 W/m2
18:24 69.3 °F 57.4 °F 30.1 in ESE 3.1 mph 8.3 mph 66% 0 in 215.00 W/m2
18:29 69.4 °F 57.6 °F 30.1 in SE 3.8 mph 8.3 mph 66% 0 in 215.00 W/m2
18:34 69.3 °F 57.4 °F 30.1 in SE 2.2 mph 7.6 mph 66% 0 in 193.00 W/m2
18:39 68.9 °F 57 °F 30.1 in East 3.8 mph 7.6 mph 66% 0 in 159.00 W/m2
18:44 68.5 °F 57.9 °F 30.1 in ESE 3.1 mph 6.9 mph 69% 0 in 217.00 W/m2
18:49 69.4 °F 58.5 °F 30.1 in NW 2.2 mph 6.9 mph 68% 0 in 203.00 W/m2
18:54 69.4 °F 57.6 °F 30.1 in West 3.8 mph 7.6 mph 66% 0 in 186.00 W/m2
18:59 68.7 °F 57.4 °F 30.1 in SW 4.5 mph 7.6 mph 67% 0 in 115.00 W/m2
19:04 67.3 °F 57.9 °F 30.1 in NW 4.5 mph 9.2 mph 72% 0 in 145.00 W/m2
19:09 67.8 °F 58.5 °F 30.1 in WNW 4.5 mph 9.2 mph 72% 0 in 121.00 W/m2
19:14 67.8 °F 58.5 °F 30.1 in West 3.8 mph 6.9 mph 72% 0 in 93.00 W/m2
19:19 66.9 °F 58.5 °F 30.1 in SW 4.5 mph 6.9 mph 74% 0 in 57.00 W/m2
19:24 66.2 °F 57.7 °F 30.1 in SW 2.2 mph 6.9 mph 74% 0 in 66.00 W/m2
19:29 66.4 °F 57.9 °F 30.1 in WSW 0.7 mph 5.4 mph 74% 0 in 62.00 W/m2
19:34 66.7 °F 57.7 °F 30.1 in WSW 0.7 mph 3.8 mph 73% 0 in 31.00 W/m2
19:39 66.2 °F 57.4 °F 30.1 in SSW 2.2 mph 3.8 mph 73% 0 in 31.00 W/m2
19:44 65.1 °F 57.4 °F 30.1 in SW 2.2 mph 4.5 mph 76% 0 in 28.00 W/m2
19:49 64.6 °F 57.2 °F 30.1 in Calm   4.5 mph 77% 0 in 29.00 W/m2
19:54 64.6 °F 57.2 °F 30.1 in SW 1.6 mph 3.8 mph 77% 0 in 28.00 W/m2
19:59 64.2 °F 57.6 °F 30.1 in Calm   3.1 mph 79% 0 in 24.00 W/m2
20:04 64 °F 57.7 °F 30.1 in WSW 1.6 mph 3.1 mph 80% 0 in 16.00 W/m2
20:09 63.5 °F 57.2 °F 30.1 in WSW 1.6 mph 3.1 mph 80% 0 in 8.00 W/m2
20:14 62.8 °F 56.8 °F 30.1 in SW 1.6 mph 3.1 mph 81% 0 in 5.00 W/m2
20:19 62.2 °F 57 °F 30.1 in Calm   3.1 mph 83% 0 in 3.00 W/m2
20:24 61.7 °F 56.5 °F 30.1 in Calm   3.1 mph 83% 0 in 0.00 W/m2
20:29 61.3 °F 56.5 °F 30.1 in Calm   2.2 mph 84% 0 in 0.00 W/m2
20:34 61 °F 56.1 °F 30.1 in Calm   2.2 mph 84% 0 in 0.00 W/m2
20:39 60.8 °F 55.9 °F 30.1 in Calm     84% 0 in 0.00 W/m2
20:44 60.4 °F 56.7 °F 30.1 in North 2.2 mph 3.8 mph 87% 0 in 0.00 W/m2
20:49 60.1 °F 56.5 °F 30.1 in Calm   3.8 mph 88% 0 in 0.00 W/m2
20:54 59.9 °F 56.7 °F 30.1 in North 3.1 mph 3.8 mph 89% 0 in 0.00 W/m2
20:59 59.7 °F 56.8 °F 30.1 in North 2.2 mph 4.5 mph 90% 0 in 0.00 W/m2
21:04 59.7 °F 57 °F 30.1 in NNW 0.7 mph 4.5 mph 91% 0 in 0.00 W/m2
21:09 59.5 °F 56.8 °F 30.1 in Calm   3.8 mph 91% 0 in 0.00 W/m2
21:14 59.4 °F 56.7 °F 30.1 in NNW 1.6 mph 3.1 mph 91% 0 in 0.00 W/m2
21:19 59 °F 56.5 °F 30.1 in NW 0.7 mph 3.8 mph 91% 0 in 0.00 W/m2
21:24 58.8 °F 56.5 °F 30.1 in Calm   3.8 mph 92% 0 in 0.00 W/m2
21:29 58.3 °F 55.9 °F 30.1 in Calm   2.2 mph 92% 0 in 0.00 W/m2
21:34 58.3 °F 56.3 °F 30.1 in Calm   0.7 mph 93% 0 in 0.00 W/m2
21:39 58.3 °F 56.7 °F 30.1 in Calm   0.7 mph 94% 0 in 0.00 W/m2
21:44 58.3 °F 56.7 °F 30.1 in Calm     94% 0 in 0.00 W/m2
21:49 58.1 °F 56.5 °F 30.1 in Calm     94% 0 in 0.00 W/m2
21:54 58.1 °F 56.5 °F 30.1 in Calm     94% 0 in 0.00 W/m2
21:59 57.9 °F 56.1 °F 30.1 in Calm     94% 0 in 0.00 W/m2
22:04 57.7 °F 55.9 °F 30.1 in Calm     94% 0 in 0.00 W/m2
22:09 57.7 °F 56.3 °F 30.1 in NNW 1.6 mph 3.8 mph 95% 0 in 0.00 W/m2
22:14 57.4 °F 55.9 °F 30.1 in NW 1.6 mph 3.8 mph 95% 0 in 0.00 W/m2
22:19 57.2 °F 55.8 °F 30.1 in NW 2.2 mph 3.8 mph 95% 0 in 0.00 W/m2
22:24 56.8 °F 55.8 °F 30.1 in NW 0.7 mph 3.8 mph 96% 0 in 0.00 W/m2
22:29 56.8 °F 55.8 °F 30.1 in NW 2.2 mph 3.8 mph 96% 0 in 0.00 W/m2
22:34 56.7 °F 55.8 °F 30.1 in NW 2.2 mph 3.1 mph 97% 0 in 0.00 W/m2
22:39 56.5 °F 55.6 °F 30.1 in Calm   3.1 mph 97% 0 in 0.00 W/m2
22:44 56.3 °F 55.6 °F 30.1 in Calm   3.1 mph 97% 0 in 0.00 W/m2
22:49 56.1 °F 55.2 °F 30.1 in Calm     97% 0 in 0.00 W/m2
22:54 56.1 °F 55.2 °F 30.1 in Calm     97% 0 in 0.00 W/m2
22:59 55.9 °F 55.4 °F 30.1 in Calm     98% 0 in 0.00 W/m2
23:04 55.9 °F 55.4 °F 30.1 in Calm     98% 0 in 0.00 W/m2
23:09 55.9 °F 55.4 °F 30.1 in Calm     98% 0 in 0.00 W/m2
23:14 55.9 °F 55.4 °F 30.1 in NNW 1.6 mph 3.1 mph 98% 0 in 0.00 W/m2
23:19 55.9 °F 55.4 °F 30.1 in NNW 3.1 mph 3.8 mph 98% 0 in 0.00 W/m2
23:24 55.9 °F 55.8 °F 30.1 in NW 1.6 mph 4.5 mph 99% 0 in 0.00 W/m2
23:29 55.9 °F 55.4 °F 30.1 in NNW 1.6 mph 4.5 mph 98% 0 in 0.00 W/m2
23:34 55.8 °F 55.2 °F 30.1 in NNW 1.6 mph 3.1 mph 98% 0 in 0.00 W/m2
23:39 55.6 °F 55 °F 30.1 in NNW 0.7 mph 4.5 mph 98% 0 in 0.00 W/m2
23:44 55.6 °F 55 °F 30.1 in Calm   4.5 mph 98% 0 in 0.00 W/m2
23:49 55.2 °F 54.3 °F 30.1 in Calm   2.2 mph 97% 0 in 0.00 W/m2
23:54 55.2 °F 54.3 °F 30.1 in Calm     97% 0 in 0.00 W/m2
23:59 55 °F 54.1 °F 30.1 in Calm     97% 0 in 0.00 W/m2
Northern Hawkes Bay. New Zealand Historic Data
Compliments of Weather Underground - 2 mb